Time;durP1;ratioP1;P1;durP2;ratioP2;P2;SDS_P1;SDS_P2;PMS_P1;PMS_P2;Temp;Humidity;BMP_temperature;BMP_pressure;BME280_temperature;BME280_humidity;BME280_pressure;Samples;Min_cycle;Max_cycle;Signal;HPM_P1;HPM_P2
2023/06/12 00:00:12;;;;;;;11.13;8.10;;;;;;;14.56;100.00;102127.44;5042087;28;20479;-45
2023/06/12 00:02:40;;;;;;;9.23;8.43;;;;;;;14.55;100.00;102126.59;5041433;28;20563;-42
2023/06/12 00:05:09;;;;;;;10.30;9.07;;;;;;;14.51;100.00;102119.97;5041494;28;20801;-45
2023/06/12 00:07:37;;;;;;;12.60;9.50;;;;;;;14.51;100.00;102124.50;5040739;28;20448;-44
2023/06/12 00:10:07;;;;;;;10.80;9.70;;;;;;;14.49;100.00;102130.03;5040699;28;20436;-44
2023/06/12 00:12:36;;;;;;;10.10;9.40;;;;;;;14.50;100.00;102125.50;5040909;28;20547;-44
2023/06/12 00:15:04;;;;;;;9.27;8.60;;;;;;;14.47;100.00;102117.84;5040902;28;20845;-43
2023/06/12 00:17:33;;;;;;;10.07;9.10;;;;;;;14.49;100.00;102121.97;5040472;28;20484;-44
2023/06/12 00:20:01;;;;;;;19.60;9.63;;;;;;;14.48;100.00;102120.34;5040644;28;20436;-42
2023/06/12 00:22:29;;;;;;;11.47;9.03;;;;;;;14.49;100.00;102121.16;5040524;28;20841;-44
2023/06/12 00:24:57;;;;;;;11.63;10.53;;;;;;;14.46;100.00;102124.22;5040314;28;20439;-45
2023/06/12 00:27:26;;;;;;;13.30;10.33;;;;;;;14.47;100.00;102128.56;5040809;28;20889;-46
2023/06/12 00:29:54;;;;;;;12.37;9.50;;;;;;;14.47;100.00;102123.19;5041463;28;20429;-45
2023/06/12 00:32:21;;;;;;;10.60;9.60;;;;;;;14.47;100.00;102117.84;5033416;28;20532;-43
2023/06/12 00:34:49;;;;;;;10.87;9.83;;;;;;;14.44;100.00;102113.69;5033160;28;20442;-44
2023/06/12 00:37:18;;;;;;;11.97;10.47;;;;;;;14.45;100.00;102125.25;5032889;28;20575;-44
2023/06/12 00:39:46;;;;;;;18.07;10.67;;;;;;;14.44;100.00;102120.91;5033050;28;20483;-44
2023/06/12 00:42:14;;;;;;;13.17;10.90;;;;;;;14.41;100.00;102119.41;5032488;28;20498;-43
2023/06/12 00:44:43;;;;;;;12.53;11.53;;;;;;;14.40;100.00;102123.13;5033517;28;20490;-45
2023/06/12 00:47:11;;;;;;;12.50;11.70;;;;;;;14.42;100.00;102117.56;5033075;28;21040;-43
2023/06/12 00:49:40;;;;;;;12.73;11.27;;;;;;;14.40;100.00;102115.91;5033019;28;20969;-43
2023/06/12 00:52:11;;;;;;;12.80;11.50;;;;;;;14.41;100.00;102119.41;5032196;28;20439;-47
2023/06/12 00:54:39;;;;;;;16.00;12.77;;;;;;;14.39;100.00;102114.22;5033135;28;20432;-43
2023/06/12 00:57:08;;;;;;;11.97;10.80;;;;;;;14.35;100.00;102104.91;5032745;28;20503;-43
2023/06/12 00:59:36;;;;;;;11.40;10.40;;;;;;;14.31;100.00;102108.94;5033148;28;20833;-49
2023/06/12 01:02:09;;;;;;;12.77;10.40;;;;;;;14.29;100.00;102111.00;5031928;28;20475;-45
2023/06/12 01:04:42;;;;;;;12.23;11.13;;;;;;;14.26;100.00;102100.63;5032971;28;20420;-45
2023/06/12 01:07:16;;;;;;;11.33;10.53;;;;;;;14.26;100.00;102110.53;5032835;28;20487;-43
2023/06/12 01:09:49;;;;;;;11.90;10.30;;;;;;;14.23;100.00;102105.53;5033221;28;20456;-48
2023/06/12 01:12:18;;;;;;;12.60;11.50;;;;;;;14.25;100.00;102103.50;5032245;28;20460;-46
2023/06/12 01:14:46;;;;;;;12.40;11.03;;;;;;;14.20;100.00;102101.38;5032655;28;20432;-44
2023/06/12 01:17:16;;;;;;;11.90;10.97;;;;;;;14.21;100.00;102099.53;5032713;28;20480;-44
2023/06/12 01:19:45;;;;;;;12.37;11.07;;;;;;;14.22;100.00;102093.97;5032550;28;20435;-44
2023/06/12 01:22:18;;;;;;;13.93;12.63;;;;;;;14.22;100.00;102102.03;5031312;28;20517;-43
2023/06/12 01:25:13;;;;;;;13.00;11.90;;;;;;;14.20;100.00;102098.69;5032612;28;20432;-43
2023/06/12 01:27:52;;;;;;;12.50;11.40;;;;;;;14.14;100.00;102099.44;5028620;28;20865;-43
2023/06/12 01:30:43;;;;;;;11.50;10.63;;;;;;;14.13;100.00;102094.25;5032099;28;20470;-43
2023/06/12 01:33:17;;;;;;;12.83;11.50;;;;;;;14.14;100.00;102096.78;5031256;28;20519;-43
2023/06/12 01:35:47;;;;;;;14.10;11.40;;;;;;;14.11;100.00;102091.78;5032074;28;20432;-45
2023/06/12 01:38:20;;;;;;;12.17;11.07;;;;;;;14.08;100.00;102085.94;5032695;28;20476;-43
2023/06/12 01:40:49;;;;;;;12.77;11.57;;;;;;;14.08;100.00;102094.00;5031844;28;20428;-45
2023/06/12 01:43:17;;;;;;;12.00;10.87;;;;;;;14.06;100.00;102094.19;5030815;28;20464;-44
2023/06/12 01:45:46;;;;;;;11.90;10.90;;;;;;;14.05;100.00;102084.47;5032540;28;20428;-43
2023/06/12 01:48:16;;;;;;;12.43;11.37;;;;;;;14.08;100.00;102088.63;5031529;28;20495;-43
2023/06/12 01:50:44;;;;;;;12.20;11.10;;;;;;;14.07;100.00;102081.59;5032333;28;20490;-43
2023/06/12 01:53:13;;;;;;;12.97;11.97;;;;;;;14.08;100.00;102085.94;5031398;28;20869;-46
2023/06/12 01:55:41;;;;;;;12.63;11.90;;;;;;;14.08;100.00;102080.59;5031586;28;20511;-42
2023/06/12 01:58:09;;;;;;;14.00;12.70;;;;;;;14.07;100.00;102077.06;5030781;28;20488;-43
2023/06/12 02:00:37;;;;;;;13.63;12.50;;;;;;;14.06;100.00;102078.09;5031787;28;20424;-43
2023/06/12 02:03:04;;;;;;;12.10;11.40;;;;;;;14.06;100.00;102072.75;5030667;28;20965;-46
2023/06/12 02:05:33;;;;;;;12.47;11.57;;;;;;;14.06;100.00;102090.69;5032110;28;20428;-43
2023/06/12 02:08:01;;;;;;;12.53;11.63;;;;;;;14.08;100.00;102075.22;5031653;28;20480;-44
2023/06/12 02:10:29;;;;;;;12.80;11.80;;;;;;;14.11;100.00;102074.84;5031619;28;20486;-43
2023/06/12 02:12:57;;;;;;;13.07;11.90;;;;;;;14.08;100.00;102097.50;5030633;28;20518;-43
2023/06/12 02:15:25;;;;;;;12.73;11.83;;;;;;;14.05;100.00;102070.22;5031172;28;20421;-44
2023/06/12 02:17:52;;;;;;;13.70;12.60;;;;;;;14.06;100.00;102085.31;5031675;28;20476;-43
2023/06/12 02:20:20;;;;;;;13.00;11.77;;;;;;;14.07;100.00;102073.53;5031662;28;20482;-43
2023/06/12 02:22:49;;;;;;;13.97;12.40;;;;;;;14.07;100.00;102078.91;5030501;28;20468;-43
2023/06/12 02:25:17;;;;;;;14.90;13.40;;;;;;;14.06;100.00;102077.25;5031349;28;20435;-44
2023/06/12 02:27:45;;;;;;;13.47;12.27;;;;;;;14.04;100.00;102080.13;5027296;28;20452;-43
2023/06/12 02:30:13;;;;;;;15.30;13.70;;;;;;;14.08;100.00;102073.38;5031753;28;20436;-43
2023/06/12 02:32:41;;;;;;;15.90;14.20;;;;;;;14.06;100.00;102078.09;5030629;28;20471;-44
2023/06/12 02:35:09;;;;;;;13.27;12.37;;;;;;;14.07;100.00;102076.22;5031491;28;20432;-48
2023/06/12 02:37:38;;;;;;;14.73;13.43;;;;;;;14.07;100.00;102082.44;5031221;28;20893;-44
2023/06/12 02:40:08;;;;;;;13.23;12.23;;;;;;;14.03;100.00;102089.19;5031601;28;20490;-43
2023/06/12 02:42:37;;;;;;;14.10;12.70;;;;;;;14.03;100.00;102088.38;5031169;28;20874;-43
2023/06/12 02:45:05;;;;;;;13.13;12.13;;;;;;;14.04;100.00;102087.31;5031637;28;20570;-44
2023/06/12 02:47:33;;;;;;;12.87;11.80;;;;;;;14.08;100.00;102078.72;5031209;28;20468;-44
2023/06/12 02:50:01;;;;;;;13.00;11.97;;;;;;;14.05;100.00;102073.75;5031573;28;20460;-45
2023/06/12 02:52:29;;;;;;;13.10;12.30;;;;;;;14.00;100.00;102072.66;5030705;28;20510;-44
2023/06/12 02:54:57;;;;;;;19.47;13.03;;;;;;;14.04;100.00;102080.13;5033407;28;20502;-43
2023/06/12 02:57:27;;;;;;;14.17;12.87;;;;;;;14.01;100.00;102085.84;5034390;28;20510;-43
2023/06/12 02:59:55;;;;;;;13.60;12.53;;;;;;;13.97;100.00;102081.06;5035048;28;20502;-46
2023/06/12 03:02:22;;;;;;;14.10;12.93;;;;;;;14.04;100.00;102071.22;5034202;28;20517;-47
2023/06/12 03:04:50;;;;;;;13.27;12.43;;;;;;;14.05;100.00;102059.50;5034799;28;20428;-42
2023/06/12 03:07:18;;;;;;;12.70;12.00;;;;;;;14.08;100.00;102075.22;5035149;28;20870;-44
2023/06/12 03:09:46;;;;;;;13.50;12.20;;;;;;;14.06;100.00;102080.78;5034944;28;20999;-46
2023/06/12 03:12:14;;;;;;;13.40;12.60;;;;;;;14.07;100.00;102082.44;5034201;28;20957;-43
2023/06/12 03:14:44;;;;;;;13.43;12.33;;;;;;;14.09;100.00;102079.56;5034984;28;20486;-45
2023/06/12 03:17:12;;;;;;;12.83;11.63;;;;;;;14.13;100.00;102067.44;5035014;28;20475;-47
2023/06/12 03:19:39;;;;;;;13.30;12.20;;;;;;;14.19;100.00;102080.09;5034858;28;20479;-48
2023/06/12 03:22:07;;;;;;;13.33;12.33;;;;;;;14.25;100.00;102076.66;5033328;28;21088;-48
2023/06/12 03:24:37;;;;;;;12.33;11.63;;;;;;;14.34;100.00;102075.56;5034987;28;20428;-46
2023/06/12 03:27:05;;;;;;;12.20;11.30;;;;;;;14.70;100.00;102083.59;5030944;28;20547;-48
2023/06/12 03:29:33;;;;;;;15.47;13.13;;;;;;;15.00;100.00;102074.38;5019365;28;20945;-48
2023/06/12 03:32:02;;;;;;;16.33;13.27;;;;;;;15.13;100.00;102074.50;5034069;28;20440;-48
2023/06/12 03:34:31;;;;;;;13.77;12.33;;;;;;;15.06;100.00;102068.25;5034433;28;20424;-43
2023/06/12 03:36:59;;;;;;;13.70;12.60;;;;;;;14.98;100.00;102067.56;5034713;28;20483;-47
2023/06/12 03:39:27;;;;;;;13.37;12.10;;;;;;;14.95;100.00;102068.78;5034327;28;20514;-48
2023/06/12 03:41:57;;;;;;;14.37;12.80;;;;;;;14.93;100.00;102066.25;5034039;28;20432;-43
2023/06/12 03:44:24;;;;;;;12.00;11.30;;;;;;;14.90;100.00;102060.47;5034518;28;20466;-46
2023/06/12 03:46:52;;;;;;;12.93;11.83;;;;;;;14.93;100.00;102063.56;5034090;28;20906;-45
2023/06/12 03:49:23;;;;;;;13.03;12.00;;;;;;;14.90;100.00;102065.84;5034651;28;20428;-45
2023/06/12 03:51:50;;;;;;;13.57;12.40;;;;;;;14.96;100.00;102060.50;5034193;28;20432;-43
2023/06/12 03:54:19;;;;;;;14.30;13.20;;;;;;;15.06;100.00;102056.66;5034259;28;20832;-44
2023/06/12 03:56:48;;;;;;;13.23;12.33;;;;;;;15.09;100.00;102058.97;5034253;28;20456;-44
2023/06/12 03:59:16;;;;;;;13.40;12.50;;;;;;;15.17;100.00;102062.34;5034387;28;20472;-46
2023/06/12 04:01:44;;;;;;;14.70;13.20;;;;;;;15.18;100.00;102063.16;5033868;28;20498;-43
2023/06/12 04:04:12;;;;;;;13.37;12.20;;;;;;;15.22;100.00;102054.53;5034150;28;21018;-43
2023/06/12 04:06:41;;;;;;;13.33;12.43;;;;;;;15.25;100.00;102058.69;5033545;28;20475;-43
2023/06/12 04:09:12;;;;;;;14.30;13.40;;;;;;;15.35;100.00;102053.81;5033758;28;20432;-46
2023/06/12 04:11:40;;;;;;;15.33;14.30;;;;;;;15.44;100.00;102056.13;5033770;28;20432;-43
2023/06/12 04:14:08;;;;;;;13.73;12.27;;;;;;;15.59;100.00;102055.25;5033767;28;20518;-44
2023/06/12 04:16:36;;;;;;;12.43;11.73;;;;;;;15.80;100.00;102055.16;5033699;28;20428;-43
2023/06/12 04:19:05;;;;;;;13.37;12.33;;;;;;;15.86;100.00;102057.06;5034279;28;20471;-43
2023/06/12 04:21:33;;;;;;;14.90;13.33;;;;;;;15.87;100.00;102059.53;5033637;28;20459;-43
2023/06/12 04:24:03;;;;;;;13.70;12.20;;;;;;;15.92;100.00;102046.28;5033376;28;20464;-46
2023/06/12 04:26:34;;;;;;;13.53;12.53;;;;;;;15.97;100.00;102051.94;5033758;28;20992;-44
2023/06/12 04:29:02;;;;;;;14.57;13.17;;;;;;;16.87;100.00;102067.75;5029894;28;20459;-43
2023/06/12 04:31:31;;;;;;;13.43;12.33;;;;;;;17.92;100.00;102050.63;4994274;28;20433;-45
2023/06/12 04:34:00;;;;;;;12.67;11.87;;;;;;;18.64;100.00;102052.97;4993914;28;20469;-44
2023/06/12 04:36:28;;;;;;;11.80;10.90;;;;;;;19.32;100.00;102053.91;4994019;28;20935;-44
2023/06/12 04:38:56;;;;;;;11.57;10.40;;;;;;;19.92;100.00;102043.31;4994126;28;20477;-47
2023/06/12 04:41:27;;;;;;;9.30;8.63;;;;;;;20.38;100.00;102035.41;4994427;28;20528;-47
2023/06/12 04:43:58;;;;;;;10.43;9.43;;;;;;;20.93;100.00;102031.44;4993722;28;20480;-43
2023/06/12 04:46:27;;;;;;;8.80;8.10;;;;;;;21.38;100.00;102031.75;4994031;28;20504;-49
2023/06/12 04:48:56;;;;;;;9.43;8.47;;;;;;;22.05;100.00;102035.66;4993956;28;20781;-45
2023/06/12 04:51:24;;;;;;;7.80;7.10;;;;;;;21.99;100.00;102030.34;4993708;28;20430;-50
2023/06/12 04:53:53;;;;;;;9.30;7.97;;;;;;;22.42;100.00;102035.25;4993534;28;20472;-45
2023/06/12 04:56:21;;;;;;;7.57;6.87;;;;;;;22.71;100.00;102042.34;4994043;28;20446;-47
2023/06/12 04:58:51;;;;;;;9.30;6.40;;;;;;;22.63;100.00;102036.44;4993721;28;20441;-45
2023/06/12 05:01:21;;;;;;;9.70;7.27;;;;;;;22.42;100.00;102044.25;4993978;28;20461;-46
2023/06/12 05:03:50;;;;;;;10.53;6.10;;;;;;;22.40;100.00;102042.84;4993172;28;20995;-45
2023/06/12 05:06:18;;;;;;;8.27;6.77;;;;;;;22.74;100.00;102033.69;4993606;28;20457;-46
2023/06/12 05:08:45;;;;;;;6.60;6.10;;;;;;;23.00;93.70;102035.75;4994289;28;20487;-47
2023/06/12 05:11:13;;;;;;;7.57;5.90;;;;;;;22.64;93.56;102041.63;4994038;28;20441;-44
2023/06/12 05:13:41;;;;;;;8.10;5.50;;;;;;;23.16;95.70;102036.81;4993308;28;20474;-45
2023/06/12 05:16:10;;;;;;;6.37;5.70;;;;;;;23.42;88.15;102028.00;4993738;28;20488;-46
2023/06/12 05:18:38;;;;;;;7.50;6.07;;;;;;;23.77;85.20;102038.56;4992332;28;20891;-44
2023/06/12 05:21:06;;;;;;;6.87;6.23;;;;;;;23.94;86.59;102022.13;4993484;28;20900;-46
2023/06/12 05:23:35;;;;;;;6.13;5.60;;;;;;;24.46;83.27;102020.56;4992929;28;20461;-45
2023/06/12 05:26:04;;;;;;;9.33;6.20;;;;;;;24.36;77.65;102025.09;4993258;28;20433;-48
2023/06/12 05:28:31;;;;;;;7.07;6.33;;;;;;;24.82;76.01;102034.56;5020435;28;20976;-44
2023/06/12 05:30:59;;;;;;;8.53;5.83;;;;;;;24.76;75.53;102025.47;5032321;28;20436;-45
2023/06/12 05:33:28;;;;;;;6.20;5.70;;;;;;;24.48;76.45;102029.31;5031661;28;20522;-45
2023/06/12 05:35:56;;;;;;;8.00;5.70;;;;;;;24.82;77.02;102026.38;5032452;28;20439;-44
2023/06/12 05:38:32;;;;;;;9.63;5.90;;;;;;;24.94;70.76;102036.00;5089300;27;20889;-45
2023/06/12 05:40:59;;;;;;;9.83;5.93;;;;;;;25.08;72.78;102026.31;5069113;28;20456;-45
2023/06/12 05:43:27;;;;;;;7.80;6.43;;;;;;;25.21;75.71;102033.22;5055142;28;20810;-44
2023/06/12 05:45:55;;;;;;;6.70;5.63;;;;;;;25.50;74.15;102036.44;5048707;28;20525;-46
2023/06/12 05:48:23;;;;;;;9.73;5.00;;;;;;;25.67;67.82;102031.59;5049056;28;20455;-49
2023/06/12 05:50:50;;;;;;;8.50;5.90;;;;;;;25.74;66.15;102027.56;5048747;28;20430;-47
2023/06/12 05:53:18;;;;;;;6.33;5.30;;;;;;;25.73;67.16;102036.84;5048280;28;20546;-43
2023/06/12 05:55:47;;;;;;;8.83;5.43;;;;;;;26.15;68.03;102034.03;5048682;28;20430;-44
2023/06/12 05:58:15;;;;;;;6.50;5.57;;;;;;;26.53;62.07;102035.47;5048585;28;20487;-43
2023/06/12 06:00:43;;;;;;;5.83;5.20;;;;;;;26.69;63.56;102036.31;5049088;28;20435;-43
2023/06/12 06:03:12;;;;;;;5.73;5.20;;;;;;;26.82;63.71;102041.28;5048340;28;20478;-43
2023/06/12 06:05:40;;;;;;;8.87;5.20;;;;;;;26.83;61.82;102031.94;5048766;28;20493;-44
2023/06/12 06:08:08;;;;;;;5.73;5.00;;;;;;;26.67;61.10;102042.03;5048538;28;20497;-44
2023/06/12 06:10:36;;;;;;;8.20;6.50;;;;;;;26.44;63.10;102037.09;5048229;28;20497;-44
2023/06/12 06:13:05;;;;;;;5.97;4.73;;;;;;;25.99;63.18;102045.94;5047717;28;20532;-43
2023/06/12 06:15:33;;;;;;;6.27;5.40;;;;;;;25.90;63.03;102036.63;5048694;28;20488;-43
2023/06/12 06:18:01;;;;;;;6.60;5.80;;;;;;;26.09;63.19;102029.59;5048277;28;20510;-45
2023/06/12 06:20:29;;;;;;;5.83;5.33;;;;;;;26.63;62.43;102040.13;5048369;28;20444;-46
2023/06/12 06:22:57;;;;;;;5.87;4.50;;;;;;;26.48;64.52;102035.47;5047724;28;20459;-45
2023/06/12 06:25:24;;;;;;;5.97;5.47;;;;;;;26.51;60.50;102037.66;5047979;28;20902;-45
2023/06/12 06:27:52;;;;;;;5.77;4.80;;;;;;;26.77;63.14;102033.00;5037713;28;20456;-45
2023/06/12 06:30:21;;;;;;;5.87;5.17;;;;;;;26.67;61.24;102036.56;5028118;28;20459;-46
2023/06/12 06:32:49;;;;;;;5.60;5.10;;;;;;;26.75;60.65;102033.28;5036043;28;20463;-47
2023/06/12 06:35:17;;;;;;;12.80;5.80;;;;;;;26.39;60.78;102048.03;5048166;28;20928;-48
2023/06/12 06:37:45;;;;;;;5.27;4.77;;;;;;;26.77;62.77;102039.31;5047671;28;20478;-44
2023/06/12 06:40:14;;;;;;;7.00;5.70;;;;;;;26.96;59.97;102044.28;5048261;28;20438;-45
2023/06/12 06:42:42;;;;;;;6.50;5.90;;;;;;;27.29;61.66;102041.78;5047677;28;20465;-46
2023/06/12 06:45:11;;;;;;;6.10;5.60;;;;;;;27.18;58.45;102050.28;5048152;28;20462;-46
2023/06/12 06:47:40;;;;;;;7.33;5.27;;;;;;;27.59;59.01;102051.88;5047447;28;20451;-45
2023/06/12 06:50:09;;;;;;;6.93;5.37;;;;;;;26.99;59.07;102055.50;5034211;28;21061;-47
2023/06/12 06:52:37;;;;;;;6.63;5.70;;;;;;;26.80;59.52;102051.66;5034196;28;20981;-46
2023/06/12 06:55:05;;;;;;;6.83;5.30;;;;;;;27.17;59.00;102057.69;5034778;28;20428;-47
2023/06/12 06:57:36;;;;;;;5.60;5.10;;;;;;;26.64;61.53;102059.00;5034435;28;20557;-48
2023/06/12 07:00:06;;;;;;;7.23;5.60;;;;;;;27.13;60.24;102047.53;5034460;28;20431;-49
2023/06/12 07:02:34;;;;;;;5.20;4.67;;;;;;;27.67;59.86;102062.25;5033807;28;20459;-44
2023/06/12 07:05:03;;;;;;;6.87;5.50;;;;;;;27.76;59.23;102044.13;5034661;28;20427;-48
2023/06/12 07:07:31;;;;;;;6.97;5.63;;;;;;;27.96;55.35;102052.28;5034548;28;20263;-47
2023/06/12 07:09:59;;;;;;;4.97;4.60;;;;;;;27.78;56.65;102047.41;5034486;28;20564;-46
2023/06/12 07:12:26;;;;;;;6.27;5.70;;;;;;;27.53;56.72;102055.72;5033690;28;20837;-50
2023/06/12 07:14:54;;;;;;;6.30;5.70;;;;;;;27.45;57.62;102057.09;5034302;28;20472;-48
2023/06/12 07:17:22;;;;;;;9.17;5.10;;;;;;;27.23;58.68;102050.28;5033960;28;20551;-43
2023/06/12 07:19:50;;;;;;;6.43;5.80;;;;;;;27.43;58.85;102059.31;5034370;28;20205;-45
2023/06/12 07:22:19;;;;;;;7.50;5.13;;;;;;;27.43;57.75;102053.81;5033704;28;20698;-46
2023/06/12 07:24:46;;;;;;;8.53;5.60;;;;;;;27.65;57.51;102061.72;5034339;28;20432;-45
2023/06/12 07:27:14;;;;;;;5.93;5.40;;;;;;;27.53;57.02;102061.22;5030143;28;20511;-44
2023/06/12 07:29:42;;;;;;;7.67;5.20;;;;;;;27.21;57.42;102066.16;5025610;28;20774;-46
2023/06/12 07:32:10;;;;;;;7.03;5.90;;;;;;;27.17;59.18;102062.34;5033062;28;20617;-43
2023/06/12 07:34:37;;;;;;;7.83;5.90;;;;;;;27.27;59.58;102059.59;5033850;28;21113;-43
2023/06/12 07:37:07;;;;;;;8.10;5.83;;;;;;;27.31;58.17;102066.13;5033861;28;20455;-44
2023/06/12 07:39:36;;;;;;;6.20;5.63;;;;;;;27.11;58.48;102057.94;5033857;28;20474;-46
2023/06/12 07:42:06;;;;;;;5.53;5.13;;;;;;;27.06;60.15;102055.22;5033314;28;20200;-44
2023/06/12 07:44:34;;;;;;;5.83;5.13;;;;;;;27.13;59.20;102059.31;5033916;28;20497;-49
2023/06/12 07:47:01;;;;;;;10.97;6.37;;;;;;;26.75;59.96;102049.72;5033520;28;21036;-43
2023/06/12 07:49:29;;;;;;;7.17;5.03;;;;;;;26.51;61.88;102059.53;5033589;28;20428;-49
2023/06/12 07:51:57;;;;;;;6.37;5.73;;;;;;;26.54;62.10;102056.25;5033064;28;20484;-47
2023/06/12 07:54:24;;;;;;;8.07;5.87;;;;;;;26.32;63.07;102058.38;5033438;28;20471;-49
2023/06/12 07:56:53;;;;;;;5.80;5.20;;;;;;;26.23;64.00;102055.34;5033400;28;20818;-50
2023/06/12 07:59:21;;;;;;;7.07;5.77;;;;;;;25.63;65.64;102046.88;5033266;28;20476;-47
2023/06/12 08:01:49;;;;;;;10.47;6.03;;;;;;;25.58;66.05;102061.34;5032651;28;20438;-49
2023/06/12 08:04:17;;;;;;;6.83;5.83;;;;;;;25.20;68.01;102070.63;5033373;28;20440;-50
2023/06/12 08:06:47;;;;;;;6.30;5.40;;;;;;;24.95;72.30;102053.22;5033276;28;20502;-49
2023/06/12 08:09:15;;;;;;;10.73;6.50;;;;;;;24.82;73.31;102056.41;5033209;28;20467;-52
2023/06/12 08:11:43;;;;;;;6.20;5.60;;;;;;;24.85;74.43;102053.94;5033063;28;20850;-47
2023/06/12 08:14:12;;;;;;;6.80;6.10;;;;;;;24.61;75.17;102050.69;5032644;28;20467;-51
2023/06/12 08:16:41;;;;;;;7.77;5.80;;;;;;;24.69;76.07;102047.53;5033080;28;20443;-48
2023/06/12 08:19:09;;;;;;;6.63;5.60;;;;;;;24.39;78.47;102046.38;5032911;28;20538;-49
2023/06/12 08:21:37;;;;;;;6.60;5.77;;;;;;;23.96;83.35;102047.22;5033271;28;20979;-46
2023/06/12 08:24:07;;;;;;;7.87;7.03;;;;;;;23.86;86.73;102049.84;5032344;28;21086;-46
2023/06/12 08:26:35;;;;;;;12.20;6.20;;;;;;;23.85;85.90;102049.00;5033098;28;20531;-48
2023/06/12 08:29:03;;;;;;;6.70;6.20;;;;;;;23.76;86.69;102045.06;5032866;28;20432;-47
2023/06/12 08:31:33;;;;;;;6.40;5.90;;;;;;;23.80;88.49;102039.94;5012694;28;20437;-47
2023/06/12 08:34:01;;;;;;;6.50;5.90;;;;;;;23.75;89.28;102053.47;5012619;28;20519;-44
2023/06/12 08:36:29;;;;;;;7.40;6.00;;;;;;;23.68;90.80;102049.03;5012719;28;20476;-46
2023/06/12 08:38:57;;;;;;;10.53;7.47;;;;;;;23.86;90.49;102047.13;5013119;28;20515;-45
2023/06/12 08:41:27;;;;;;;9.03;7.43;;;;;;;24.15;89.97;102046.69;5012648;28;20972;-44
2023/06/12 08:43:59;;;;;;;7.93;7.13;;;;;;;24.17;85.66;102057.31;5012536;28;20881;-47
2023/06/12 08:46:30;;;;;;;8.50;5.77;;;;;;;24.35;86.13;102048.81;5012685;28;20437;-46
2023/06/12 08:49:00;;;;;;;10.10;6.20;;;;;;;24.27;86.75;102042.97;5013310;28;20949;-44
2023/06/12 08:51:30;;;;;;;11.00;6.37;;;;;;;24.10;85.87;102045.78;5012843;28;20443;-49
2023/06/12 08:54:00;;;;;;;7.57;6.63;;;;;;;24.12;87.30;102038.19;5012152;28;20464;-47
2023/06/12 08:56:29;;;;;;;8.13;6.23;;;;;;;24.15;88.30;102062.22;5012783;28;20417;-49
2023/06/12 08:58:57;;;;;;;10.47;6.30;;;;;;;23.90;90.34;102046.34;5012796;28;20882;-50
2023/06/12 09:01:28;;;;;;;7.50;5.80;;;;;;;23.85;92.66;102048.19;5012315;28;20437;-44
2023/06/12 09:04:01;;;;;;;8.37;6.33;;;;;;;24.05;91.18;102045.69;5010779;28;21048;-45
2023/06/12 09:06:34;;;;;;;7.50;6.70;;;;;;;24.01;93.53;102044.56;5012810;28;20416;-48
2023/06/12 09:09:03;;;;;;;6.90;6.30;;;;;;;24.07;92.34;102051.75;5012511;28;20436;-49
2023/06/12 09:11:30;;;;;;;6.20;5.60;;;;;;;24.23;92.10;102048.13;5012053;28;20931;-45
2023/06/12 09:14:01;;;;;;;9.63;6.17;;;;;;;24.20;87.35;102044.00;5011810;28;20473;-46
2023/06/12 09:16:29;;;;;;;9.60;7.07;;;;;;;24.03;92.38;102047.88;5012510;28;20468;-50
2023/06/12 09:18:57;;;;;;;7.70;7.10;;;;;;;24.14;90.34;102050.47;5012366;28;20476;-48
2023/06/12 09:21:26;;;;;;;7.10;6.33;;;;;;;24.00;88.73;102056.53;5012479;28;20470;-50
2023/06/12 09:23:55;;;;;;;7.50;6.80;;;;;;;24.17;90.29;102052.69;5011807;28;20480;-45
2023/06/12 09:26:23;;;;;;;6.97;6.23;;;;;;;24.07;88.49;102044.34;5012088;28;20456;-50
2023/06/12 09:28:52;;;;;;;10.20;6.80;;;;;;;24.21;91.91;102042.09;5030421;28;20501;-47
2023/06/12 09:31:20;;;;;;;7.13;6.23;;;;;;;24.34;86.41;102055.34;5031898;28;20439;-50
2023/06/12 09:33:51;;;;;;;9.53;7.00;;;;;;;24.42;86.75;102041.25;5031511;28;20487;-46
2023/06/12 09:36:21;;;;;;;7.23;6.50;;;;;;;24.45;85.85;102053.53;5031918;28;20421;-47
2023/06/12 09:38:51;;;;;;;12.43;6.80;;;;;;;24.46;88.87;102036.91;5031775;28;20479;-45
2023/06/12 09:41:24;;;;;;;10.07;6.80;;;;;;;24.35;87.51;102051.53;5031674;28;20485;-45
2023/06/12 09:43:53;;;;;;;6.57;5.90;;;;;;;24.60;86.31;102048.25;5031502;28;20459;-51
2023/06/12 09:46:26;;;;;;;9.50;7.10;;;;;;;24.70;82.86;102051.88;5031751;28;20467;-48
2023/06/12 09:48:56;;;;;;;6.97;6.00;;;;;;;24.73;85.97;102036.88;5031925;28;20428;-49
2023/06/12 09:51:25;;;;;;;16.17;7.13;;;;;;;24.69;88.54;102036.59;5031664;28;20809;-47
2023/06/12 09:53:57;;;;;;;7.90;6.17;;;;;;;24.94;86.51;102038.75;5031180;28;20463;-49
2023/06/12 09:56:25;;;;;;;7.63;6.87;;;;;;;24.87;83.43;102037.31;5031882;28;20414;-44
2023/06/12 09:58:54;;;;;;;7.07;6.37;;;;;;;24.92;84.33;102040.09;5031677;28;20576;-45
2023/06/12 10:01:26;;;;;;;9.00;7.67;;;;;;;25.05;84.72;102034.19;5031612;28;20432;-44
2023/06/12 10:03:59;;;;;;;7.50;6.00;;;;;;;24.98;83.71;102041.78;5031100;28;20845;-46
2023/06/12 10:06:28;;;;;;;7.40;6.90;;;;;;;25.06;85.71;102036.66;5031506;28;20438;-44
2023/06/12 10:08:58;;;;;;;6.93;6.33;;;;;;;25.06;86.40;102039.38;5031473;28;20514;-46
2023/06/12 10:11:26;;;;;;;7.90;7.17;;;;;;;25.28;82.48;102031.91;5031392;28;20444;-46
2023/06/12 10:13:56;;;;;;;8.50;7.33;;;;;;;25.21;82.72;102034.03;5031030;28;20873;-47
2023/06/12 10:16:25;;;;;;;9.57;6.70;;;;;;;25.17;82.21;102037.56;5031339;28;20439;-45
2023/06/12 10:18:55;;;;;;;13.90;8.77;;;;;;;25.08;83.82;102041.88;5031388;28;20482;-45
2023/06/12 10:21:24;;;;;;;11.33;7.00;;;;;;;25.18;83.69;102037.28;5031528;28;20427;-49
2023/06/12 10:23:52;;;;;;;7.03;6.43;;;;;;;25.50;82.62;102033.72;5032433;28;20459;-44
2023/06/12 10:26:22;;;;;;;10.67;6.50;;;;;;;25.48;84.27;102033.97;5035156;28;20456;-48
2023/06/12 10:28:50;;;;;;;8.07;7.23;;;;;;;25.59;81.75;102032.13;5035014;28;20427;-47
2023/06/12 10:31:19;;;;;;;8.30;7.17;;;;;;;25.52;81.81;102040.56;5034929;28;20435;-45
2023/06/12 10:34:10;;;;;;;9.17;6.43;;;;;;;25.50;81.19;102056.38;5034612;28;20486;-47
2023/06/12 10:36:39;;;;;;;8.40;7.43;;;;;;;25.46;81.18;102055.22;5035152;28;20446;-48
2023/06/12 10:39:16;;;;;;;10.13;7.47;;;;;;;25.59;81.80;102041.16;5035285;28;20929;-45
2023/06/12 10:41:59;;;;;;;8.03;7.37;;;;;;;25.52;83.39;102035.09;5035068;28;20518;-51
2023/06/12 10:44:41;;;;;;;8.37;7.37;;;;;;;25.62;82.38;102039.78;5034887;28;20423;-48
2023/06/12 10:47:19;;;;;;;7.90;7.30;;;;;;;25.59;81.77;102045.78;5035066;28;20856;-44
2023/06/12 10:49:58;;;;;;;9.07;7.30;;;;;;;25.62;79.52;102028.84;5034614;28;20431;-46
2023/06/12 10:52:27;;;;;;;10.17;6.97;;;;;;;25.44;79.69;102032.84;5034111;28;20560;-51
2023/06/12 10:55:20;;;;;;;8.03;7.30;;;;;;;25.47;81.63;102021.38;5034400;28;20471;-47
2023/06/12 10:57:53;;;;;;;10.93;7.13;;;;;;;25.56;81.57;102025.28;5034573;28;20462;-49
2023/06/12 11:00:23;;;;;;;8.97;6.90;;;;;;;25.45;82.33;102029.00;5034436;28;20467;-44
2023/06/12 11:02:59;;;;;;;7.40;6.70;;;;;;;25.51;79.81;102022.50;5034012;28;20459;-48
2023/06/12 11:05:28;;;;;;;7.90;7.27;;;;;;;25.61;81.48;102022.56;5034891;28;20782;-49
2023/06/12 11:07:57;;;;;;;7.93;7.30;;;;;;;25.60;78.25;102025.56;5034199;28;20975;-46
2023/06/12 11:10:26;;;;;;;6.97;6.50;;;;;;;25.73;79.71;102022.34;5034372;28;20917;-44
2023/06/12 11:12:55;;;;;;;8.20;7.40;;;;;;;25.55;79.76;102020.91;5033697;28;20463;-49
2023/06/12 11:15:23;;;;;;;7.10;6.50;;;;;;;25.59;76.97;102019.28;5034637;28;20428;-47
2023/06/12 11:17:52;;;;;;;8.07;7.27;;;;;;;25.72;75.76;102016.06;5034294;28;20475;-45
2023/06/12 11:20:22;;;;;;;8.43;7.63;;;;;;;25.65;75.09;102011.94;5034208;28;21011;-47
2023/06/12 11:22:58;;;;;;;8.93;7.37;;;;;;;25.35;75.72;102022.66;5033695;28;20471;-49